Time;durP1;ratioP1;P1;durP2;ratioP2;P2;SDS_P1;SDS_P2;PMS_P1;PMS_P2;Temp;Humidity;BMP_temperature;BMP_pressure;BME280_temperature;BME280_humidity;BME280_pressure;Samples;Min_cycle;Max_cycle;Signal;HPM_P1;HPM_P2
2021/06/19 00:02:13;;;;;;;5.30;1.77;;;;;;;11.30;70.81;101088.84;4989189;28;20024;-86
2021/06/19 00:04:38;;;;;;;4.45;1.75;;;;;;;11.29;70.57;101073.69;5005049;28;20121;-85
2021/06/19 00:07:04;;;;;;;2.78;1.85;;;;;;;11.51;70.89;101100.88;4997534;28;20029;-86
2021/06/19 00:09:31;;;;;;;4.32;2.00;;;;;;;11.38;70.31;101079.91;5003890;28;20040;-85
2021/06/19 00:11:56;;;;;;;3.67;1.48;;;;;;;11.32;71.16;101083.25;4995109;28;20040;-85
2021/06/19 00:14:22;;;;;;;6.38;1.95;;;;;;;11.26;71.70;101084.78;5006673;28;20029;-85
2021/06/19 00:16:48;;;;;;;3.05;2.20;;;;;;;11.17;71.29;101073.22;5004563;28;20041;-85
2021/06/19 00:19:14;;;;;;;4.25;2.10;;;;;;;11.21;71.28;101088.00;5008863;28;20079;-85
2021/06/19 00:21:41;;;;;;;3.90;1.90;;;;;;;11.26;71.70;101092.03;4990051;28;20037;-86
2021/06/19 00:24:19;;;;;;;4.93;2.00;;;;;;;11.09;71.31;101059.78;5005718;28;20040;-86
2021/06/19 00:26:46;;;;;;;4.03;2.35;;;;;;;11.16;71.98;101073.38;5005237;28;20669;-85
2021/06/19 00:29:12;;;;;;;5.00;2.30;;;;;;;10.99;72.95;101069.91;4994309;28;20029;-85
2021/06/19 00:31:38;;;;;;;5.75;2.20;;;;;;;10.77;73.73;101071.44;4988777;28;20111;-85
2021/06/19 00:34:03;;;;;;;5.60;2.00;;;;;;;10.70;73.93;101067.75;5005259;28;20108;-85
2021/06/19 00:36:29;;;;;;;3.00;1.70;;;;;;;10.55;73.91;101060.34;4991139;28;20039;-85
2021/06/19 00:38:54;;;;;;;5.32;2.00;;;;;;;10.49;74.11;101055.63;4991797;28;20036;-85
2021/06/19 00:41:20;;;;;;;3.35;1.80;;;;;;;10.48;74.36;101051.28;5005168;28;20021;-85
2021/06/19 00:43:45;;;;;;;6.10;1.85;;;;;;;10.55;74.73;101059.50;4991731;28;20053;-85
2021/06/19 00:46:11;;;;;;;4.63;2.05;;;;;;;10.54;74.48;101055.97;4990590;28;20032;-85
2021/06/19 00:48:36;;;;;;;4.07;1.90;;;;;;;10.55;73.88;101043.38;5003888;28;20013;-85
2021/06/19 00:51:03;;;;;;;4.68;1.90;;;;;;;10.47;74.22;101027.25;4999907;28;20474;-86
2021/06/19 00:53:28;;;;;;;3.88;1.73;;;;;;;10.57;74.51;101047.56;4992596;28;20029;-86
2021/06/19 00:55:54;;;;;;;5.05;1.90;;;;;;;10.62;74.01;101057.81;4991635;28;20030;-85
2021/06/19 00:58:20;;;;;;;6.47;2.10;;;;;;;10.64;74.13;101049.56;4990754;28;20053;-86
2021/06/19 01:00:46;;;;;;;4.22;2.17;;;;;;;10.41;74.44;101012.63;4991018;28;20048;-85
2021/06/19 01:03:13;;;;;;;2.10;1.60;;;;;;;10.63;74.63;101053.28;4991474;28;20025;-85
2021/06/19 01:05:39;;;;;;;4.07;2.10;;;;;;;10.55;74.58;101033.44;4986263;28;20030;-85
2021/06/19 01:08:04;;;;;;;4.63;1.80;;;;;;;10.48;74.62;101016.34;4991612;28;20075;-85
2021/06/19 01:10:30;;;;;;;4.30;2.30;;;;;;;10.51;74.38;101029.44;4992403;28;20082;-86
2021/06/19 01:12:56;;;;;;;3.65;2.20;;;;;;;10.54;74.15;101044.38;4992455;28;20114;-85
2021/06/19 01:15:21;;;;;;;5.20;2.25;;;;;;;10.49;75.17;101047.56;4988303;28;20445;-85
2021/06/19 01:17:47;;;;;;;7.10;3.25;;;;;;;10.24;75.12;101016.28;4991223;28;20468;-85
2021/06/19 01:20:15;;;;;;;8.02;3.28;;;;;;;10.29;75.55;101038.16;5004516;28;20525;-85
2021/06/19 01:22:47;;;;;;;8.68;3.67;;;;;;;10.21;75.23;101036.25;5006840;28;20033;-86
2021/06/19 01:25:18;;;;;;;11.38;4.57;;;;;;;10.18;75.61;101039.28;5001861;28;20036;-85
2021/06/19 01:27:44;;;;;;;9.45;4.18;;;;;;;9.95;75.82;101006.00;5018068;28;20025;-84
2021/06/19 01:30:10;;;;;;;11.35;4.07;;;;;;;10.16;75.96;101035.09;5003092;28;20517;-85
2021/06/19 01:32:37;;;;;;;7.63;3.25;;;;;;;10.09;75.94;101029.56;5005682;28;20032;-85
2021/06/19 01:35:05;;;;;;;7.20;3.08;;;;;;;10.06;75.45;101033.41;5006651;28;20516;-85
2021/06/19 01:37:30;;;;;;;6.80;3.33;;;;;;;9.82;76.29;100993.09;5001827;28;20037;-85
2021/06/19 01:40:06;;;;;;;8.30;3.47;;;;;;;9.94;76.05;101023.16;5005247;28;20036;-85
2021/06/19 01:42:32;;;;;;;8.40;3.30;;;;;;;9.86;76.73;101032.03;5022393;28;20029;-85
2021/06/19 01:44:58;;;;;;;6.78;3.25;;;;;;;9.72;77.33;101013.88;4990971;28;20048;-86
2021/06/19 01:47:27;;;;;;;6.05;2.80;;;;;;;9.73;76.50;101012.84;4988601;28;21980;-85
2021/06/19 01:49:52;;;;;;;5.13;3.13;;;;;;;9.75;76.67;101021.59;5001074;28;20055;-85
2021/06/19 01:52:18;;;;;;;6.13;2.80;;;;;;;9.79;76.30;101034.53;4990045;28;20025;-85
2021/06/19 01:54:44;;;;;;;6.13;2.53;;;;;;;9.80;76.66;101030.00;5003185;28;20040;-85
2021/06/19 01:57:09;;;;;;;5.35;2.58;;;;;;;9.78;76.99;101023.94;4984366;28;20058;-85
2021/06/19 01:59:35;;;;;;;4.43;2.63;;;;;;;9.63;76.75;100997.75;5003294;28;20040;-85
2021/06/19 02:02:01;;;;;;;7.80;3.38;;;;;;;9.68;76.40;100997.22;4990191;28;20022;-86
2021/06/19 02:04:27;;;;;;;5.60;2.88;;;;;;;9.85;76.67;101022.28;5003193;28;20916;-84
2021/06/19 02:06:53;;;;;;;6.85;2.65;;;;;;;9.75;76.70;101010.84;5008771;28;20374;-83
2021/06/19 02:09:19;;;;;;;6.65;3.10;;;;;;;9.73;76.50;100997.56;5020709;28;20032;-86
2021/06/19 02:11:44;;;;;;;7.57;3.33;;;;;;;9.66;76.62;100980.47;4991016;28;20051;-86
2021/06/19 02:14:12;;;;;;;4.63;2.63;;;;;;;9.89;76.78;101015.56;5003317;28;20033;-84
2021/06/19 02:16:38;;;;;;;4.32;2.42;;;;;;;9.80;76.99;100997.78;5005390;28;20017;-84
2021/06/19 02:19:04;;;;;;;5.80;2.60;;;;;;;9.83;77.11;101003.66;4990324;28;20026;-85
2021/06/19 02:21:29;;;;;;;6.78;2.75;;;;;;;9.74;77.00;100988.53;4988208;28;20033;-85
2021/06/19 02:23:55;;;;;;;5.55;2.55;;;;;;;9.81;77.46;100997.59;4985558;28;20025;-85
2021/06/19 02:26:20;;;;;;;4.95;2.60;;;;;;;9.62;77.42;100973.72;5005106;28;20025;-85
2021/06/19 02:28:45;;;;;;;5.68;2.60;;;;;;;9.62;78.51;100979.94;5004049;28;20022;-87
2021/06/19 02:31:11;;;;;;;4.45;2.42;;;;;;;9.40;78.47;100957.25;4989413;28;20025;-84
2021/06/19 02:33:37;;;;;;;6.70;2.65;;;;;;;9.21;78.65;100928.84;4985014;28;20030;-85
2021/06/19 02:36:03;;;;;;;6.10;2.60;;;;;;;9.39;78.58;100960.06;4987732;28;20523;-84
2021/06/19 02:38:28;;;;;;;6.47;2.45;;;;;;;9.22;79.43;100940.41;4986446;28;20021;-85
2021/06/19 02:40:54;;;;;;;4.32;2.17;;;;;;;9.31;78.24;100952.00;5001266;28;20406;-85
2021/06/19 02:43:20;;;;;;;4.38;2.38;;;;;;;9.39;78.24;100965.44;5007703;28;20032;-84
2021/06/19 02:45:47;;;;;;;5.95;2.38;;;;;;;9.37;78.35;100960.25;5003944;28;20053;-86
2021/06/19 02:48:12;;;;;;;3.65;1.95;;;;;;;9.15;79.02;100921.41;5004884;28;20076;-85
2021/06/19 02:50:40;;;;;;;4.93;2.08;;;;;;;9.30;78.97;100956.53;4996899;28;20558;-84
2021/06/19 02:53:07;;;;;;;4.28;2.13;;;;;;;9.10;79.01;100904.97;5007298;28;20117;-85
2021/06/19 02:55:36;;;;;;;6.50;2.30;;;;;;;9.22;78.58;100914.41;4993852;28;20033;-85
2021/06/19 02:58:04;;;;;;;4.35;1.98;;;;;;;9.44;78.61;100939.78;4993763;28;20034;-84
2021/06/19 03:00:29;;;;;;;5.32;2.42;;;;;;;9.42;78.69;100924.84;5011042;28;20053;-85
2021/06/19 03:02:55;;;;;;;4.13;2.20;;;;;;;9.26;79.36;100917.59;5007252;28;20115;-86
2021/06/19 03:05:24;;;;;;;4.65;2.45;;;;;;;9.23;79.83;100915.25;4986226;28;20017;-85
2021/06/19 03:07:50;;;;;;;3.67;2.10;;;;;;;8.98;79.27;100882.16;4992375;28;20057;-85
2021/06/19 03:10:19;;;;;;;3.58;2.17;;;;;;;9.18;79.79;100906.84;4990186;28;20025;-85
2021/06/19 03:12:45;;;;;;;4.28;2.58;;;;;;;9.13;79.91;100903.81;5002521;28;20075;-85
2021/06/19 03:15:11;;;;;;;6.38;3.33;;;;;;;9.12;80.04;100897.59;5009591;28;20025;-84
2021/06/19 03:17:37;;;;;;;3.63;1.90;;;;;;;9.08;80.07;100893.59;5009201;28;20140;-86
2021/06/19 03:20:08;;;;;;;4.15;2.30;;;;;;;9.04;80.44;100884.16;4992959;28;20022;-84
2021/06/19 03:23:00;;;;;;;5.00;2.17;;;;;;;9.03;80.23;100877.13;4991767;28;20032;-85
2021/06/19 03:25:28;;;;;;;6.80;2.00;;;;;;;9.01;80.26;100879.97;5002516;28;20037;-85
2021/06/19 03:27:59;;;;;;;6.65;1.90;;;;;;;8.98;80.79;100868.75;5013445;28;20029;-86
2021/06/19 03:30:26;;;;;;;3.88;1.85;;;;;;;8.84;80.71;100848.75;4994397;28;20157;-85
2021/06/19 03:32:51;;;;;;;3.28;2.10;;;;;;;8.90;80.55;100847.25;4991823;28;20053;-85
2021/06/19 03:35:17;;;;;;;5.10;1.90;;;;;;;8.93;81.23;100861.19;4991556;28;20022;-85
2021/06/19 03:37:44;;;;;;;2.95;1.80;;;;;;;8.93;81.52;100858.50;5022698;28;20060;-85
2021/06/19 03:40:11;;;;;;;4.97;1.90;;;;;;;8.91;81.20;100851.63;4993505;28;20530;-85
2021/06/19 03:42:37;;;;;;;4.30;1.92;;;;;;;8.95;81.19;100847.63;4995476;28;20037;-84
2021/06/19 03:45:04;;;;;;;5.18;1.80;;;;;;;9.09;81.06;100860.38;5007653;28;20022;-86
2021/06/19 03:47:29;;;;;;;2.88;1.85;;;;;;;9.01;81.47;100841.59;4990255;28;20026;-84
2021/06/19 03:49:55;;;;;;;4.07;2.20;;;;;;;8.90;80.75;100828.50;5009137;28;20033;-85
2021/06/19 03:52:20;;;;;;;2.78;2.00;;;;;;;8.99;81.46;100849.78;5003959;28;20038;-86
2021/06/19 03:54:47;;;;;;;5.32;2.05;;;;;;;8.97;81.79;100857.19;5008826;28;20040;-85
2021/06/19 03:57:27;;;;;;;6.38;2.35;;;;;;;8.93;81.84;100854.97;5006111;28;20029;-85
2021/06/19 03:59:53;;;;;;;7.50;2.30;;;;;;;8.98;81.73;100869.56;5008945;28;20067;-85
2021/06/19 04:02:19;;;;;;;6.63;2.58;;;;;;;8.80;81.39;100823.25;5000754;28;20026;-85
2021/06/19 04:04:45;;;;;;;6.10;2.10;;;;;;;8.78;80.93;100811.84;4992675;28;20124;-85
2021/06/19 04:07:11;;;;;;;5.03;2.10;;;;;;;8.95;80.76;100856.50;4992594;28;20101;-85
2021/06/19 04:09:37;;;;;;;3.75;1.75;;;;;;;8.70;81.76;100822.56;5015076;28;20026;-86
2021/06/19 04:12:03;;;;;;;7.03;2.20;;;;;;;8.89;81.49;100854.47;4989114;28;20477;-84
2021/06/19 04:14:28;;;;;;;7.57;1.90;;;;;;;8.80;81.58;100834.81;4996209;28;20108;-85
2021/06/19 04:16:54;;;;;;;2.42;1.38;;;;;;;8.66;81.89;100816.69;5009581;28;20460;-85
2021/06/19 04:19:19;;;;;;;5.63;1.90;;;;;;;8.80;82.35;100848.22;5003177;28;20030;-85
2021/06/19 04:21:45;;;;;;;4.18;2.05;;;;;;;8.88;82.60;100862.66;5006776;28;20030;-85
2021/06/19 04:24:10;;;;;;;2.88;2.00;;;;;;;8.79;82.55;100848.41;5027482;28;20036;-85
2021/06/19 04:26:35;;;;;;;3.03;1.83;;;;;;;8.70;82.84;100826.06;5006179;28;20032;-85
2021/06/19 04:29:01;;;;;;;6.65;2.25;;;;;;;8.84;82.54;100837.16;4989392;28;20107;-85
2021/06/19 04:31:27;;;;;;;6.03;1.98;;;;;;;9.02;81.65;100862.91;4996081;28;20443;-86
2021/06/19 04:33:52;;;;;;;5.43;2.13;;;;;;;8.98;81.98;100847.28;5011910;28;20026;-85
2021/06/19 04:36:19;;;;;;;4.20;1.70;;;;;;;8.96;82.10;100851.97;5007453;28;20034;-85
2021/06/19 04:38:44;;;;;;;4.32;2.03;;;;;;;8.92;82.17;100842.59;4990800;28;20221;-85
2021/06/19 04:41:22;;;;;;;6.05;2.20;;;;;;;9.08;81.73;100857.88;5007189;28;20500;-85
2021/06/19 04:46:13;;;;;;;3.78;2.10;;;;;;;8.99;81.88;100827.50;5012567;28;20025;-84
2021/06/19 04:48:39;;;;;;;3.67;1.60;;;;;;;9.08;82.29;100844.47;4994476;28;20229;-85
2021/06/19 04:51:04;;;;;;;3.63;1.90;;;;;;;9.16;82.17;100849.84;4991975;28;20454;-85
2021/06/19 04:53:30;;;;;;;5.47;2.03;;;;;;;9.25;81.72;100848.84;5007965;28;20034;-85
2021/06/19 04:55:55;;;;;;;4.47;2.00;;;;;;;9.09;81.59;100812.09;5010246;28;20025;-86
2021/06/19 04:58:23;;;;;;;3.80;2.08;;;;;;;9.14;81.53;100817.81;5009473;28;20033;-85
2021/06/19 05:00:49;;;;;;;9.10;2.00;;;;;;;9.34;81.87;100847.00;5007792;28;20037;-85
2021/06/19 05:03:18;;;;;;;6.25;3.38;;;;;;;9.31;81.81;100828.56;4998716;28;20013;-85
2021/06/19 05:05:43;;;;;;;3.63;1.77;;;;;;;9.44;81.62;100840.47;5014757;28;20022;-84
2021/06/19 05:08:09;;;;;;;3.13;1.80;;;;;;;9.32;81.05;100817.69;4999370;28;20116;-85
2021/06/19 05:10:34;;;;;;;4.80;2.10;;;;;;;9.61;81.01;100846.72;4994624;28;20477;-85
2021/06/19 05:13:00;;;;;;;3.47;1.75;;;;;;;9.50;80.64;100816.66;5002831;28;20462;-85
2021/06/19 05:15:26;;;;;;;3.47;1.73;;;;;;;9.83;80.39;100847.88;4989331;28;21571;-86
2021/06/19 05:17:55;;;;;;;9.18;2.30;;;;;;;9.90;80.16;100853.44;4988838;28;20056;-86
2021/06/19 05:20:21;;;;;;;5.50;1.95;;;;;;;9.96;80.04;100850.06;5007080;28;20036;-85
2021/06/19 05:22:47;;;;;;;3.63;2.00;;;;;;;10.00;80.08;100848.72;4994740;28;20032;-85
2021/06/19 05:25:13;;;;;;;3.28;1.88;;;;;;;9.99;80.23;100838.13;5008329;28;20055;-86
2021/06/19 05:27:40;;;;;;;2.60;1.80;;;;;;;9.90;80.23;100829.25;4984505;28;20046;-85
2021/06/19 05:30:06;;;;;;;5.07;1.80;;;;;;;9.86;80.05;100815.31;4992351;28;20028;-86
2021/06/19 05:32:31;;;;;;;5.15;1.80;;;;;;;9.80;80.35;100801.75;4990844;28;20120;-86
2021/06/19 05:34:57;;;;;;;4.20;1.90;;;;;;;9.91;80.53;100815.63;4988238;28;20105;-85
2021/06/19 05:37:22;;;;;;;4.57;2.25;;;;;;;9.84;80.25;100793.19;5005614;28;20053;-85
2021/06/19 05:39:48;;;;;;;4.57;1.83;;;;;;;10.01;80.11;100799.34;4988713;28;20028;-85
2021/06/19 05:42:13;;;;;;;5.18;2.45;;;;;;;10.24;79.54;100817.41;4994863;28;20021;-85
2021/06/19 05:44:38;;;;;;;4.82;2.78;;;;;;;10.32;78.83;100809.38;4989293;28;20026;-85
2021/06/19 05:47:06;;;;;;;4.80;2.40;;;;;;;10.43;78.81;100818.94;4987614;28;20040;-86
2021/06/19 05:49:31;;;;;;;6.65;3.00;;;;;;;10.52;78.42;100820.56;4995242;28;20040;-85
2021/06/19 05:51:56;;;;;;;4.60;2.70;;;;;;;10.40;78.18;100778.94;4988123;28;20030;-85
2021/06/19 05:54:22;;;;;;;6.82;3.08;;;;;;;10.68;77.79;100819.66;4990071;28;20033;-85
2021/06/19 05:56:47;;;;;;;4.80;2.90;;;;;;;10.59;77.79;100785.75;4990046;28;20030;-85
2021/06/19 05:59:13;;;;;;;7.13;3.35;;;;;;;10.73;77.11;100790.38;5006112;28;20095;-85
2021/06/19 06:01:38;;;;;;;6.28;3.67;;;;;;;10.70;76.92;100794.25;4986517;28;20049;-85
2021/06/19 06:04:04;;;;;;;7.88;3.20;;;;;;;10.58;77.08;100795.66;5005395;28;20425;-85
2021/06/19 06:06:29;;;;;;;6.07;3.55;;;;;;;10.77;76.69;100814.06;5003127;28;20041;-85
2021/06/19 06:08:55;;;;;;;6.43;3.55;;;;;;;10.69;76.14;100787.22;4991567;28;20102;-85
2021/06/19 06:11:20;;;;;;;7.68;3.38;;;;;;;10.82;75.54;100796.56;4981990;28;20060;-85
2021/06/19 06:13:46;;;;;;;6.20;3.50;;;;;;;10.88;75.42;100804.75;4983838;28;20072;-85
2021/06/19 06:16:11;;;;;;;7.00;3.30;;;;;;;10.88;75.59;100815.53;4987017;28;20036;-86
2021/06/19 06:18:37;;;;;;;7.63;3.67;;;;;;;10.97;75.28;100803.69;5009034;28;20117;-86
2021/06/19 06:21:04;;;;;;;6.45;4.00;;;;;;;11.00;75.26;100799.81;5006401;28;20033;-85
2021/06/19 06:23:30;;;;;;;7.35;4.18;;;;;;;11.21;74.80;100821.53;4993712;28;20029;-85
2021/06/19 06:25:55;;;;;;;8.40;4.00;;;;;;;11.15;74.57;100811.50;5003101;28;20087;-85
2021/06/19 06:28:21;;;;;;;5.50;3.78;;;;;;;11.24;74.30;100820.34;4998814;28;20024;-85
2021/06/19 06:30:47;;;;;;;7.93;4.15;;;;;;;11.14;74.26;100793.69;5000408;28;20025;-86
2021/06/19 06:33:12;;;;;;;5.75;3.38;;;;;;;11.34;73.67;100812.03;4990314;28;20025;-85
2021/06/19 06:35:38;;;;;;;6.60;3.53;;;;;;;11.26;73.37;100799.47;4992332;28;20090;-86
2021/06/19 06:38:04;;;;;;;7.40;3.63;;;;;;;11.31;73.47;100809.72;5008994;28;20478;-85
2021/06/19 06:40:29;;;;;;;6.55;3.72;;;;;;;11.37;73.45;100812.50;4993722;28;20029;-86
2021/06/19 06:42:55;;;;;;;6.85;3.92;;;;;;;11.39;72.93;100799.72;5011262;28;20033;-86
2021/06/19 06:45:20;;;;;;;7.50;3.92;;;;;;;11.49;72.88;100810.25;4991692;28;20032;-86
2021/06/19 06:47:46;;;;;;;8.93;3.53;;;;;;;11.52;72.70;100800.97;5007266;28;20034;-86
2021/06/19 06:50:11;;;;;;;7.57;3.92;;;;;;;11.40;72.35;100779.84;5007791;28;20029;-85
2021/06/19 06:52:37;;;;;;;8.13;3.55;;;;;;;11.55;71.99;100803.28;4991021;28;20022;-85
2021/06/19 06:55:05;;;;;;;8.05;4.30;;;;;;;11.55;71.51;100804.13;4996206;28;20018;-85
2021/06/19 06:57:31;;;;;;;6.97;3.80;;;;;;;11.51;71.64;100794.75;4990317;28;20508;-86
2021/06/19 06:59:56;;;;;;;7.82;3.63;;;;;;;11.58;71.04;100795.69;4997500;28;20033;-86
2021/06/19 07:02:22;;;;;;;7.75;4.15;;;;;;;11.80;70.87;100810.16;4991678;28;20040;-85
2021/06/19 07:04:49;;;;;;;5.60;3.65;;;;;;;11.89;70.40;100813.63;5008748;28;20022;-86
2021/06/19 07:07:14;;;;;;;7.50;4.20;;;;;;;11.84;70.62;100797.97;5005248;28;20018;-85
2021/06/19 07:09:41;;;;;;;6.97;3.83;;;;;;;11.93;71.00;100790.66;5007240;28;20044;-85
2021/06/19 07:12:07;;;;;;;7.68;4.20;;;;;;;12.11;70.79;100801.09;4997766;28;20037;-85
2021/06/19 07:14:32;;;;;;;8.27;3.30;;;;;;;12.30;70.56;100799.72;5009772;28;20033;-86
2021/06/19 07:16:58;;;;;;;6.93;3.45;;;;;;;12.47;69.97;100800.38;4986200;28;20026;-85
2021/06/19 07:19:23;;;;;;;8.57;3.35;;;;;;;12.56;69.53;100783.06;5013519;28;20033;-86
2021/06/19 07:21:49;;;;;;;6.88;3.00;;;;;;;12.53;68.91;100791.53;5007557;28;20025;-85
2021/06/19 07:24:14;;;;;;;6.90;3.17;;;;;;;12.45;68.99;100797.84;5007434;28;20387;-85
2021/06/19 07:26:39;;;;;;;5.22;3.35;;;;;;;12.41;69.28;100771.44;5008844;28;20502;-85
2021/06/19 07:29:05;;;;;;;5.13;2.45;;;;;;;12.38;69.08;100769.13;4985358;28;20390;-86
2021/06/19 07:31:31;;;;;;;6.15;3.90;;;;;;;12.37;69.19;100783.63;4994910;28;20096;-85
2021/06/19 07:33:56;;;;;;;9.98;4.00;;;;;;;12.27;68.98;100765.88;5007402;28;20036;-85
2021/06/19 07:36:21;;;;;;;7.85;4.13;;;;;;;12.35;69.18;100773.03;5014393;28;20101;-85
2021/06/19 07:38:47;;;;;;;8.75;4.38;;;;;;;12.33;69.33;100772.38;4994831;28;20029;-80
2021/06/19 07:41:12;;;;;;;7.68;4.18;;;;;;;12.43;68.66;100772.94;5015310;28;20025;-85
2021/06/19 07:43:39;;;;;;;11.57;6.13;;;;;;;12.55;68.42;100757.13;5008518;28;20095;-86
2021/06/19 07:46:05;;;;;;;16.35;11.05;;;;;;;12.76;68.11;100775.22;4997561;28;20075;-85
2021/06/19 07:48:30;;;;;;;6.28;3.38;;;;;;;12.53;67.56;100738.41;5000795;28;20432;-86
2021/06/19 07:50:56;;;;;;;16.55;11.35;;;;;;;12.88;67.08;100778.25;4996565;28;20866;-86
2021/06/19 07:53:21;;;;;;;16.65;9.63;;;;;;;12.69;67.48;100733.81;4998231;28;20030;-85
2021/06/19 07:55:47;;;;;;;5.97;3.25;;;;;;;13.00;67.27;100765.94;4994651;28;20115;-86
2021/06/19 07:58:13;;;;;;;6.88;3.38;;;;;;;13.16;66.92;100772.94;5005601;28;20037;-85
2021/06/19 08:00:38;;;;;;;8.05;2.88;;;;;;;13.17;65.55;100755.69;5007964;28;20405;-85
2021/06/19 08:03:04;;;;;;;9.98;3.30;;;;;;;13.22;65.43;100755.13;4990495;28;20033;-86
2021/06/19 08:05:29;;;;;;;7.13;2.72;;;;;;;13.28;65.73;100768.72;4988414;28;20034;-85
2021/06/19 08:07:55;;;;;;;6.00;3.20;;;;;;;13.22;64.82;100764.06;5020024;28;20049;-85
2021/06/19 08:10:20;;;;;;;6.80;3.25;;;;;;;13.20;65.53;100766.13;4999658;28;20028;-85
2021/06/19 08:12:46;;;;;;;4.72;2.75;;;;;;;13.23;65.35;100773.00;4995445;28;20451;-85
2021/06/19 08:15:12;;;;;;;4.97;3.20;;;;;;;13.18;65.23;100762.78;5000988;28;20025;-85
2021/06/19 08:17:38;;;;;;;4.72;3.03;;;;;;;13.21;65.83;100751.59;4996403;28;20028;-85
2021/06/19 08:20:05;;;;;;;6.18;2.88;;;;;;;13.33;66.10;100757.34;5001487;28;20025;-85
2021/06/19 08:22:31;;;;;;;5.00;2.47;;;;;;;13.37;65.66;100767.56;5007568;28;20111;-86
2021/06/19 08:24:56;;;;;;;8.18;3.20;;;;;;;13.31;65.11;100762.94;5023852;28;20179;-85
2021/06/19 08:27:22;;;;;;;5.32;3.00;;;;;;;13.35;65.33;100761.53;5006389;28;20080;-84
2021/06/19 08:29:48;;;;;;;6.57;2.72;;;;;;;13.47;65.57;100769.09;5016044;28;20029;-84
2021/06/19 08:32:14;;;;;;;4.75;2.40;;;;;;;13.48;64.33;100751.88;5012778;28;20390;-84
2021/06/19 08:34:40;;;;;;;6.30;2.85;;;;;;;13.38;63.71;100749.50;5018550;28;20036;-86
2021/06/19 08:37:05;;;;;;;6.75;2.80;;;;;;;13.33;63.26;100744.66;5015029;28;20075;-84
2021/06/19 08:39:31;;;;;;;6.50;2.65;;;;;;;13.35;63.22;100749.88;5030199;28;20025;-84
2021/06/19 08:41:57;;;;;;;6.43;2.60;;;;;;;13.54;63.04;100764.59;5012244;28;21821;-84
2021/06/19 08:44:23;;;;;;;8.07;3.55;;;;;;;13.59;62.27;100770.25;5012203;28;20553;-85
2021/06/19 08:46:53;;;;;;;6.72;2.35;;;;;;;13.53;62.04;100762.94;4984297;28;20021;-85
2021/06/19 08:49:19;;;;;;;5.97;2.75;;;;;;;13.48;61.42;100766.22;5012124;28;20021;-85
2021/06/19 08:51:45;;;;;;;5.50;2.35;;;;;;;13.18;61.99;100730.41;4995401;28;20048;-85
2021/06/19 08:54:11;;;;;;;6.55;2.50;;;;;;;13.28;63.02;100751.69;5011653;28;20488;-86
2021/06/19 08:56:41;;;;;;;3.58;2.45;;;;;;;13.45;63.32;100760.38;4989153;28;20228;-85
2021/06/19 08:59:06;;;;;;;4.60;2.60;;;;;;;13.45;62.59;100761.19;5003865;28;20042;-85
2021/06/19 09:01:32;;;;;;;3.63;2.33;;;;;;;13.41;62.22;100754.50;4993718;28;20733;-86
2021/06/19 09:03:59;;;;;;;6.20;2.42;;;;;;;13.36;62.04;100741.59;4997846;28;20112;-85
2021/06/19 09:06:27;;;;;;;6.25;2.80;;;;;;;13.51;61.61;100762.28;5028201;28;20036;-86
2021/06/19 09:09:01;;;;;;;4.05;2.20;;;;;;;13.56;61.01;100768.75;4992854;28;20056;-80
2021/06/19 09:11:54;;;;;;;5.72;2.28;;;;;;;13.53;60.47;100757.53;5005790;28;20026;-81
2021/06/19 09:14:24;;;;;;;5.78;2.10;;;;;;;13.48;59.46;100766.22;5008758;28;20430;-86
2021/06/19 09:17:00;;;;;;;5.07;1.95;;;;;;;13.58;59.51;100782.09;5002804;28;20025;-86
2021/06/19 09:19:35;;;;;;;4.55;2.13;;;;;;;13.52;57.92;100780.16;5020857;28;20053;-86
2021/06/19 09:22:22;;;;;;;4.28;1.55;;;;;;;13.46;56.97;100757.47;4989336;28;20042;-86
2021/06/19 09:24:51;;;;;;;3.00;1.70;;;;;;;13.46;56.67;100768.25;5029274;28;20029;-86
2021/06/19 09:27:39;;;;;;;3.90;2.42;;;;;;;13.47;56.56;100769.94;4992807;28;20067;-86
2021/06/19 09:30:14;;;;;;;3.03;1.90;;;;;;;13.47;56.87;100769.94;5013821;28;20022;-86
2021/06/19 09:32:49;;;;;;;3.85;1.80;;;;;;;13.46;56.49;100762.84;5011826;28;20069;-86
2021/06/19 09:35:29;;;;;;;5.00;1.80;;;;;;;13.43;56.65;100760.56;5012693;28;20021;-85
2021/06/19 09:38:03;;;;;;;5.25;1.95;;;;;;;13.48;56.41;100760.81;5010151;28;20029;-86
2021/06/19 09:40:33;;;;;;;4.35;1.90;;;;;;;13.59;56.40;100754.03;5003749;28;20024;-86
2021/06/19 09:43:21;;;;;;;5.38;1.98;;;;;;;13.80;56.67;100769.38;5010237;28;20024;-86
2021/06/19 09:46:02;;;;;;;5.60;2.03;;;;;;;13.93;56.13;100755.13;4986742;28;20485;-86
2021/06/19 09:48:38;;;;;;;4.97;1.85;;;;;;;14.10;55.46;100742.09;5025405;28;20021;-85
2021/06/19 09:51:16;;;;;;;3.83;1.85;;;;;;;14.51;55.09;100745.66;5005561;28;20022;-86
2021/06/19 09:53:49;;;;;;;4.45;1.67;;;;;;;14.81;54.23;100739.94;5011558;28;20485;-86
2021/06/19 09:56:17;;;;;;;4.00;1.50;;;;;;;14.97;53.49;100737.91;4993243;28;20502;-86
2021/06/19 09:58:46;;;;;;;5.57;1.98;;;;;;;15.14;52.66;100728.38;4984115;28;20025;-86
2021/06/19 10:01:18;;;;;;;4.72;1.88;;;;;;;15.05;53.84;100726.88;5007338;28;20446;-85
2021/06/19 10:03:54;;;;;;;3.03;2.30;;;;;;;15.11;54.51;100721.47;5015307;28;20041;-86
2021/06/19 10:06:19;;;;;;;4.88;1.60;;;;;;;15.00;54.64;100716.66;4999003;28;20021;-85
2021/06/19 10:08:46;;;;;;;4.15;1.80;;;;;;;14.78;53.94;100704.34;5001696;28;20029;-86
2021/06/19 10:11:13;;;;;;;3.60;1.58;;;;;;;14.67;53.47;100686.81;5016712;28;20052;-85
2021/06/19 10:13:38;;;;;;;4.22;1.80;;;;;;;15.02;53.15;100703.75;4991200;28;20026;-86
2021/06/19 10:16:04;;;;;;;6.05;2.65;;;;;;;15.41;52.97;100701.28;4999602;28;20116;-81
2021/06/19 10:18:30;;;;;;;4.13;1.55;;;;;;;15.52;52.20;100687.91;5012245;28;20107;-81
2021/06/19 10:20:56;;;;;;;7.30;2.92;;;;;;;15.76;52.51;100689.16;4991082;28;20035;-81
2021/06/19 10:23:22;;;;;;;10.82;5.00;;;;;;;15.75;52.07;100690.22;5014723;28;20134;-81
2021/06/19 10:25:48;;;;;;;9.88;3.30;;;;;;;15.57;51.54;100673.75;5009875;28;20045;-85
2021/06/19 10:28:16;;;;;;;6.28;1.88;;;;;;;15.49;51.99;100666.66;5003335;28;20418;-86
2021/06/19 10:30:42;;;;;;;4.75;1.48;;;;;;;15.82;50.81;100673.94;5009848;28;20065;-86
2021/06/19 10:33:28;;;;;;;3.65;1.70;;;;;;;15.94;51.05;100677.66;4994509;28;20089;-85
2021/06/19 10:35:56;;;;;;;5.50;2.38;;;;;;;16.02;51.39;100661.16;5000538;28;20033;-86
2021/06/19 10:38:22;;;;;;;4.63;1.58;;;;;;;15.88;51.06;100653.25;5010797;28;20026;-84
2021/06/19 10:40:56;;;;;;;4.78;2.40;;;;;;;15.67;51.18;100647.03;5012952;28;20025;-86
2021/06/19 10:43:22;;;;;;;4.80;2.05;;;;;;;15.40;51.39;100640.84;5012301;28;20485;-85
2021/06/19 10:45:49;;;;;;;3.42;1.70;;;;;;;15.42;52.43;100654.16;4988220;28;20025;-86
2021/06/19 10:48:35;;;;;;;4.65;1.65;;;;;;;15.29;52.27;100626.03;4989158;28;20455;-85
2021/06/19 10:51:24;;;;;;;5.13;2.28;;;;;;;15.42;52.95;100641.44;5027872;28;20099;-85
2021/06/19 10:54:09;;;;;;;4.22;1.70;;;;;;;15.51;52.57;100644.78;5008608;28;20366;-85
2021/06/19 10:56:54;;;;;;;7.43;2.05;;;;;;;15.43;52.26;100648.56;5025205;28;20141;-85
2021/06/19 10:59:29;;;;;;;8.55;2.20;;;;;;;15.45;52.83;100642.91;4995044;28;20089;-86
2021/06/19 11:01:57;;;;;;;5.45;1.88;;;;;;;15.48;52.06;100629.78;4998526;28;20052;-85
2021/06/19 11:04:34;;;;;;;3.03;1.77;;;;;;;15.47;52.26;100630.81;4992073;28;20637;-86
2021/06/19 11:07:00;;;;;;;5.30;1.90;;;;;;;15.58;52.23;100619.31;5027014;28;20041;-85
2021/06/19 11:09:39;;;;;;;3.58;1.90;;;;;;;15.96;51.73;100615.91;5009998;28;20025;-85
2021/06/19 11:12:08;;;;;;;3.95;1.90;;;;;;;16.12;51.50;100622.72;5025844;28;20021;-85
2021/06/19 11:14:40;;;;;;;3.45;1.63;;;;;;;16.21;50.83;100621.41;5016999;28;20124;-86
2021/06/19 11:17:21;;;;;;;4.68;1.90;;;;;;;16.02;50.28;100595.22;5008093;28;20440;-85
2021/06/19 11:20:03;;;;;;;5.53;1.80;;;;;;;15.80;50.43;100592.81;5022184;28;20109;-86
2021/06/19 11:22:38;;;;;;;7.00;2.05;;;;;;;15.78;51.39;100603.03;4989957;28;20026;-86
2021/06/19 11:25:23;;;;;;;4.10;2.00;;;;;;;15.65;51.74;100600.34;5029268;28;20060;-86
2021/06/19 11:28:10;;;;;;;5.30;1.75;;;;;;;15.51;52.29;100588.72;5034741;28;20044;-87
2021/06/19 11:30:36;;;;;;;6.68;2.97;;;;;;;15.52;52.61;100579.53;5033065;28;20071;-86
2021/06/19 11:33:20;;;;;;;6.55;3.20;;;;;;;15.92;52.23;100589.44;5032464;28;20025;-86